createdAt,value
2023-01-08T20:45:49.114Z,24.50
2023-01-08T20:48:17.426Z,23.90
2023-01-08T20:50:47.275Z,24.70
2023-01-08T20:53:15.312Z,23.20
2023-01-08T20:55:44.307Z,23.70
2023-01-08T20:58:12.377Z,23.00
2023-01-08T21:00:40.474Z,23.30
2023-01-08T21:03:08.726Z,24.60
2023-01-08T21:05:38.593Z,23.20
2023-01-08T21:08:07.866Z,23.90
2023-01-08T21:10:36.318Z,23.10
2023-01-08T21:13:04.384Z,22.50
2023-01-08T21:15:36.920Z,22.60
2023-01-08T21:18:05.037Z,21.80
2023-01-08T21:20:33.104Z,23.40
2023-01-08T21:23:01.848Z,22.60
2023-01-08T21:25:31.126Z,23.30
2023-01-08T21:27:59.094Z,24.00
2023-01-08T21:30:27.689Z,24.00
2023-01-08T21:32:56.547Z,23.80
2023-01-08T21:35:26.689Z,23.40
2023-01-08T21:37:54.604Z,23.00
2023-01-08T21:40:22.994Z,22.70
2023-01-08T21:43:09.610Z,24.20
2023-01-08T21:45:37.894Z,23.40
2023-01-08T21:48:06.255Z,24.30
2023-01-08T21:50:34.736Z,23.30
2023-01-08T21:53:21.545Z,22.80
2023-01-08T21:55:49.773Z,23.40
2023-01-08T21:58:17.710Z,22.50
2023-01-08T22:00:46.244Z,23.30
2023-01-08T22:03:14.356Z,21.50
2023-01-08T22:05:42.514Z,23.10
2023-01-08T22:08:15.612Z,22.90
2023-01-08T22:10:43.572Z,21.20
2023-01-08T22:13:11.751Z,22.10
2023-01-08T22:15:39.743Z,22.30
2023-01-08T22:18:07.701Z,21.10
2023-01-08T22:20:35.656Z,22.00
2023-01-08T22:23:03.632Z,21.80
2023-01-08T22:25:31.589Z,22.30
2023-01-08T22:27:59.763Z,22.10
2023-01-08T22:30:28.142Z,20.90
2023-01-08T22:32:56.418Z,20.10
2023-01-08T22:35:24.499Z,22.40
2023-01-08T22:37:52.783Z,19.90
2023-01-08T22:40:20.839Z,22.30
2023-01-08T22:42:48.910Z,22.60
2023-01-08T22:45:17.000Z,21.00
2023-01-08T22:47:45.664Z,21.90
2023-01-08T22:50:13.840Z,21.80
2023-01-08T22:52:41.859Z,21.00
2023-01-08T22:55:10.092Z,22.00
2023-01-08T22:57:38.220Z,21.30
2023-01-08T23:00:09.945Z,21.70
2023-01-08T23:02:38.237Z,20.90
2023-01-08T23:05:06.993Z,21.90
2023-01-08T23:07:34.941Z,20.50
2023-01-08T23:10:03.014Z,21.60
2023-01-08T23:12:34.502Z,23.30
2023-01-08T23:15:04.583Z,22.00
2023-01-08T23:17:38.987Z,22.60
2023-01-08T23:20:13.114Z,21.00
2023-01-08T23:22:42.004Z,22.10
2023-01-08T23:25:09.975Z,22.30
2023-01-08T23:27:38.351Z,22.20
2023-01-08T23:30:07.377Z,21.60
2023-01-08T23:32:35.421Z,21.20
2023-01-08T23:35:03.694Z,21.50
2023-01-08T23:37:33.973Z,21.10
2023-01-08T23:40:02.009Z,21.60
2023-01-08T23:42:30.263Z,21.30
2023-01-08T23:44:58.334Z,22.10
2023-01-08T23:47:26.252Z,22.20
2023-01-08T23:49:54.268Z,21.60
2023-01-08T23:52:22.234Z,21.00
2023-01-08T23:54:50.304Z,19.80
2023-01-08T23:57:18.275Z,21.10
2023-01-08T23:59:46.243Z,21.90
